Xin Dan Dong — BPBY — position and weather

sailwx.info

Track history (hours):
 
Tides and Currents Weather Stations Pressure Air Temp Water Temp Dewpoint Dewpoint Depression Visibility Wind Speed Wind Dir Waves Ship Positions

Xin Dan Dong

Last reported at 2015-Jul-29 17:12 UTC. Time now 2015-Jul-31 19:19 UTC.
Position N 22°28' E 113°45'.

Length 263 m; draft 12.8 m.

Type: Cargo ship. MMSI: 413153000.

Date/timePositionNaut miles runAvg speedWind from/ knotsBaromVisibWave heightAir tempDewpointWater temp
2015-Jul-29 17:12N 22°28' E 113°45'1113.7
2015-Jul-29 16:24N 22°38' E 113°42'2 0.3
2015-Jul-29 09:28N 22°39' E 113°41'0 0.0
2015-Jul-29 08:28N 22°39' E 113°41'0 0.0
2015-Jul-29 03:16N 22°39' E 113°41'2 2.3
2015-Jul-29 02:32N 22°38' E 113°42'1110.8
2015-Jul-29 01:33N 22°28' E 113°45'1211.8
2015-Jul-29 00:33N 22°16' E 113°48'1310.9
2015-Jul-28 23:24N 22°04' E 113°52'2912.6
2015-Jul-28 21:08N 21°59' E 114°22'217 8.4
2015-Jul-27 19:23N 23°29' E 117°56'5012.3
2015-Jul-27 15:19N 24°04' E 118°35'1312.3
2015-Jul-27 14:14N 24°13' E 118°46'812.2
2015-Jul-27 13:33N 24°18' E 118°53'1211.9
2015-Jul-27 12:33N 24°26' E 119°03'1511.5
2015-Jul-27 11:18N 24°36' E 119°14'911.1
2015-Jul-27 10:31N 24°42' E 119°22'1111.1
2015-Jul-27 09:30N 24°49' E 119°31'1010.6
2015-Jul-27 08:33N 24°56' E 119°39'1010.4
2015-Jul-27 07:33N 25°03' E 119°48'1110.6
2015-Jul-27 06:33N 25°10' E 119°56'1310.4
2015-Jul-27 05:20N 25°19' E 120°06'24611.2
2015-Jul-26 07:16N 28°43' E 122°41'5912.1
2015-Jul-26 02:23N 29°36' E 123°11'1112.4
2015-Jul-26 01:29N 29°47' E 123°14'1212.7
2015-Jul-26 00:33N 29°58' E 123°15'1212.0
2015-Jul-25 23:33N 30°10' E 123°14'1211.7
2015-Jul-25 22:33N 30°22' E 123°14'1111.5
2015-Jul-25 21:33N 30°33' E 123°14'1611.3
2015-Jul-25 20:08N 30°50' E 123°14'711.5
2015-Jul-25 19:33N 30°56' E 123°14'2311.7
2015-Jul-25 17:33N 31°20' E 123°14'1212.2
2015-Jul-25 16:33N 31°32' E 123°14'35512.6
2015-Jul-24 12:18N 37°27' E 123°14'1013.0
2015-Jul-24 11:33N 37°32' E 123°04'1313.4
2015-Jul-24 10:33N 37°39' E 122°50'1313.1
2015-Jul-24 09:33N 37°50' E 122°39'2612.9
2015-Jul-24 07:32N 38°12' E 122°22'1312.4
2015-Jul-24 06:30N 38°23' E 122°14'1212.4
2015-Jul-24 05:33N 38°33' E 122°07'1212.4
2015-Jul-24 04:33N 38°44' E 121°60'1211.2
2015-Jul-24 03:28N 38°56' E 121°55'4 0.2
2015-Jul-23 09:30N 38°52' E 121°55'1212.8
2015-Jul-23 08:33N 38°41' E 121°50'9 9.0
2015-Jul-23 07:33N 38°33' E 121°44'1212.0
2015-Jul-23 06:33N 38°30' E 121°29'  
2015-Jul-20 17:20N 37°48' E 122°39'1012.2
2015-Jul-20 16:33N 37°44' E 122°49'  
Track history (hours):
 
Tides and Currents Weather Stations Pressure Air Temp Water Temp Dewpoint Dewpoint Depression Visibility Wind Speed Wind Dir Waves Ship Positions

Xin Dan Dong

Last reported at 2015-Jul-29 17:12 UTC. Time now 2015-Jul-31 19:19 UTC.
Position N 22°28' E 113°45'.

Length 263 m; draft 12.8 m.

Type: Cargo ship. MMSI: 413153000.

Date/timePositionNaut miles runAvg speedWind from/ knotsBaromVisibWave heightAir tempDewpointWater temp
2015-Jul-29 17:12N 22°28' E 113°45'1113.7
2015-Jul-29 16:24N 22°38' E 113°42'2 0.3
2015-Jul-29 09:28N 22°39' E 113°41'0 0.0
2015-Jul-29 08:28N 22°39' E 113°41'0 0.0
2015-Jul-29 03:16N 22°39' E 113°41'2 2.3
2015-Jul-29 02:32N 22°38' E 113°42'1110.8
2015-Jul-29 01:33N 22°28' E 113°45'1211.8
2015-Jul-29 00:33N 22°16' E 113°48'1310.9
2015-Jul-28 23:24N 22°04' E 113°52'2912.6
2015-Jul-28 21:08N 21°59' E 114°22'217 8.4
2015-Jul-27 19:23N 23°29' E 117°56'5012.3
2015-Jul-27 15:19N 24°04' E 118°35'1312.3
2015-Jul-27 14:14N 24°13' E 118°46'812.2
2015-Jul-27 13:33N 24°18' E 118°53'1211.9
2015-Jul-27 12:33N 24°26' E 119°03'1511.5
2015-Jul-27 11:18N 24°36' E 119°14'911.1
2015-Jul-27 10:31N 24°42' E 119°22'1111.1
2015-Jul-27 09:30N 24°49' E 119°31'1010.6
2015-Jul-27 08:33N 24°56' E 119°39'1010.4
2015-Jul-27 07:33N 25°03' E 119°48'1110.6
2015-Jul-27 06:33N 25°10' E 119°56'1310.4
2015-Jul-27 05:20N 25°19' E 120°06'24611.2
2015-Jul-26 07:16N 28°43' E 122°41'5912.1
2015-Jul-26 02:23N 29°36' E 123°11'1112.4
2015-Jul-26 01:29N 29°47' E 123°14'1212.7
2015-Jul-26 00:33N 29°58' E 123°15'1212.0
2015-Jul-25 23:33N 30°10' E 123°14'1211.7
2015-Jul-25 22:33N 30°22' E 123°14'1111.5
2015-Jul-25 21:33N 30°33' E 123°14'1611.3
2015-Jul-25 20:08N 30°50' E 123°14'711.5
2015-Jul-25 19:33N 30°56' E 123°14'2311.7
2015-Jul-25 17:33N 31°20' E 123°14'1212.2
2015-Jul-25 16:33N 31°32' E 123°14'35512.6
2015-Jul-24 12:18N 37°27' E 123°14'1013.0
2015-Jul-24 11:33N 37°32' E 123°04'1313.4
2015-Jul-24 10:33N 37°39' E 122°50'1313.1
2015-Jul-24 09:33N 37°50' E 122°39'2612.9
2015-Jul-24 07:32N 38°12' E 122°22'1312.4
2015-Jul-24 06:30N 38°23' E 122°14'1212.4
2015-Jul-24 05:33N 38°33' E 122°07'1212.4
2015-Jul-24 04:33N 38°44' E 121°60'1211.2
2015-Jul-24 03:28N 38°56' E 121°55'4 0.2
2015-Jul-23 09:30N 38°52' E 121°55'1212.8
2015-Jul-23 08:33N 38°41' E 121°50'9 9.0
2015-Jul-23 07:33N 38°33' E 121°44'1212.0
2015-Jul-23 06:33N 38°30' E 121°29'  
2015-Jul-20 17:20N 37°48' E 122°39'1012.2
2015-Jul-20 16:33N 37°44' E 122°49'  

Dump ship's entire track history